sensor_id;sensor_type;location;lat;lon;timestamp;pressure;altitude;pressure_sealevel;temperature;humidity
58072;BME280;60383;46.626;18.866;2024-01-10T00:01:41;102130.97;;;-2.29;80.27
58072;BME280;60383;46.626;18.866;2024-01-10T00:04:06;102130.91;;;-2.26;79.56
58072;BME280;60383;46.626;18.866;2024-01-10T00:06:32;102133.84;;;-2.37;78.83
58072;BME280;60383;46.626;18.866;2024-01-10T00:08:57;102134.63;;;-2.32;78.61
58072;BME280;60383;46.626;18.866;2024-01-10T00:11:23;102134.41;;;-2.22;77.97
58072;BME280;60383;46.626;18.866;2024-01-10T00:13:48;102132.81;;;-2.31;77.50
58072;BME280;60383;46.626;18.866;2024-01-10T00:16:14;102125.19;;;-2.11;76.95
58072;BME280;60383;46.626;18.866;2024-01-10T00:18:40;102133.47;;;-2.20;76.44
58072;BME280;60383;46.626;18.866;2024-01-10T00:21:06;102125.16;;;-2.07;72.73
58072;BME280;60383;46.626;18.866;2024-01-10T00:23:32;102137.91;;;-2.19;73.05
58072;BME280;60383;46.626;18.866;2024-01-10T00:25:57;102123.56;;;-2.18;74.00
58072;BME280;60383;46.626;18.866;2024-01-10T00:28:23;102125.88;;;-2.01;74.51
58072;BME280;60383;46.626;18.866;2024-01-10T00:30:48;102122.34;;;-2.03;74.77
58072;BME280;60383;46.626;18.866;2024-01-10T00:33:15;102134.66;;;-1.93;73.83
58072;BME280;60383;46.626;18.866;2024-01-10T00:35:40;102128.16;;;-1.82;74.28
58072;BME280;60383;46.626;18.866;2024-01-10T00:38:05;102129.84;;;-1.78;74.56
58072;BME280;60383;46.626;18.866;2024-01-10T00:40:31;102122.50;;;-1.71;74.75
58072;BME280;60383;46.626;18.866;2024-01-10T00:42:56;102126.09;;;-1.71;75.00
58072;BME280;60383;46.626;18.866;2024-01-10T00:45:22;102119.16;;;-1.81;75.67
58072;BME280;60383;46.626;18.866;2024-01-10T00:47:50;102121.06;;;-1.86;76.86
58072;BME280;60383;46.626;18.866;2024-01-10T00:50:16;102121.97;;;-1.87;77.43
58072;BME280;60383;46.626;18.866;2024-01-10T00:52:45;102124.66;;;-1.86;77.48
58072;BME280;60383;46.626;18.866;2024-01-10T00:55:10;102132.72;;;-1.87;77.32
58072;BME280;60383;46.626;18.866;2024-01-10T00:57:36;102132.88;;;-1.94;77.00
58072;BME280;60383;46.626;18.866;2024-01-10T01:00:08;102127.75;;;-2.04;77.39
58072;BME280;60383;46.626;18.866;2024-01-10T01:02:35;102128.75;;;-2.09;77.99
58072;BME280;60383;46.626;18.866;2024-01-10T01:05:00;102133.34;;;-2.15;77.63
58072;BME280;60383;46.626;18.866;2024-01-10T01:07:26;102129.72;;;-2.13;77.22
58072;BME280;60383;46.626;18.866;2024-01-10T01:09:52;102139.66;;;-2.18;77.57
58072;BME280;60383;46.626;18.866;2024-01-10T01:12:17;102132.28;;;-2.08;76.65
58072;BME280;60383;46.626;18.866;2024-01-10T01:14:42;102138.53;;;-2.06;75.41
58072;BME280;60383;46.626;18.866;2024-01-10T01:17:08;102128.94;;;-2.18;75.76
58072;BME280;60383;46.626;18.866;2024-01-10T01:19:34;102129.97;;;-2.23;76.98
58072;BME280;60383;46.626;18.866;2024-01-10T01:21:59;102131.94;;;-2.32;77.45
58072;BME280;60383;46.626;18.866;2024-01-10T01:24:24;102131.03;;;-2.32;78.00
58072;BME280;60383;46.626;18.866;2024-01-10T01:26:50;102132.19;;;-2.44;78.29
58072;BME280;60383;46.626;18.866;2024-01-10T01:29:16;102126.31;;;-2.63;79.52
58072;BME280;60383;46.626;18.866;2024-01-10T01:31:41;102131.47;;;-2.54;79.26
58072;BME280;60383;46.626;18.866;2024-01-10T01:34:07;102135.81;;;-2.47;78.76
58072;BME280;60383;46.626;18.866;2024-01-10T01:36:32;102138.66;;;-2.54;79.17
58072;BME280;60383;46.626;18.866;2024-01-10T01:38:58;102135.28;;;-2.64;78.58
58072;BME280;60383;46.626;18.866;2024-01-10T01:41:23;102141.63;;;-2.70;78.30
58072;BME280;60383;46.626;18.866;2024-01-10T01:43:48;102131.69;;;-2.63;76.77
58072;BME280;60383;46.626;18.866;2024-01-10T01:46:14;102138.66;;;-2.54;76.63
58072;BME280;60383;46.626;18.866;2024-01-10T01:48:39;102137.75;;;-2.53;77.04
58072;BME280;60383;46.626;18.866;2024-01-10T01:51:07;102142.66;;;-2.77;77.05
58072;BME280;60383;46.626;18.866;2024-01-10T01:53:36;102133.88;;;-2.84;76.94
58072;BME280;60383;46.626;18.866;2024-01-10T01:56:09;102138.75;;;-3.06;77.72
58072;BME280;60383;46.626;18.866;2024-01-10T01:58:36;102128.22;;;-3.17;78.59
58072;BME280;60383;46.626;18.866;2024-01-10T02:01:03;102130.72;;;-3.06;78.45
58072;BME280;60383;46.626;18.866;2024-01-10T02:03:31;102130.00;;;-3.16;78.64
58072;BME280;60383;46.626;18.866;2024-01-10T02:05:57;102129.78;;;-3.05;78.39
58072;BME280;60383;46.626;18.866;2024-01-10T02:08:23;102131.31;;;-2.92;78.43
58072;BME280;60383;46.626;18.866;2024-01-10T02:10:48;102122.72;;;-3.09;78.32
58072;BME280;60383;46.626;18.866;2024-01-10T02:13:14;102129.72;;;-3.02;78.10
58072;BME280;60383;46.626;18.866;2024-01-10T02:15:40;102122.69;;;-3.06;78.77
58072;BME280;60383;46.626;18.866;2024-01-10T02:18:06;102126.31;;;-3.10;79.02
58072;BME280;60383;46.626;18.866;2024-01-10T02:20:31;102126.91;;;-2.94;78.30
58072;BME280;60383;46.626;18.866;2024-01-10T02:22:57;102132.88;;;-2.80;77.22
58072;BME280;60383;46.626;18.866;2024-01-10T02:25:23;102125.75;;;-2.79;77.29
58072;BME280;60383;46.626;18.866;2024-01-10T02:27:48;102114.97;;;-2.78;78.36
58072;BME280;60383;46.626;18.866;2024-01-10T02:30:14;102121.66;;;-3.00;80.50
58072;BME280;60383;46.626;18.866;2024-01-10T02:32:39;102109.22;;;-3.05;80.35
58072;BME280;60383;46.626;18.866;2024-01-10T02:35:05;102111.00;;;-3.03;79.42
58072;BME280;60383;46.626;18.866;2024-01-10T02:37:31;102114.88;;;-3.20;78.57
58072;BME280;60383;46.626;18.866;2024-01-10T02:39:58;102105.44;;;-3.43;80.08
58072;BME280;60383;46.626;18.866;2024-01-10T02:42:23;102115.78;;;-3.19;80.07
58072;BME280;60383;46.626;18.866;2024-01-10T02:44:49;102107.88;;;-3.29;80.30
58072;BME280;60383;46.626;18.866;2024-01-10T02:47:14;102117.44;;;-3.14;80.34
58072;BME280;60383;46.626;18.866;2024-01-10T02:49:40;102118.00;;;-3.46;79.53
58072;BME280;60383;46.626;18.866;2024-01-10T02:52:06;102115.66;;;-3.13;78.91
58072;BME280;60383;46.626;18.866;2024-01-10T02:54:31;102119.16;;;-3.10;78.85
58072;BME280;60383;46.626;18.866;2024-01-10T02:56:57;102118.84;;;-2.94;77.99
58072;BME280;60383;46.626;18.866;2024-01-10T02:59:22;102133.19;;;-2.95;78.58
58072;BME280;60383;46.626;18.866;2024-01-10T03:01:47;102127.06;;;-3.02;79.10
58072;BME280;60383;46.626;18.866;2024-01-10T03:04:13;102122.28;;;-2.86;78.44
58072;BME280;60383;46.626;18.866;2024-01-10T03:06:38;102122.34;;;-2.89;78.48
58072;BME280;60383;46.626;18.866;2024-01-10T03:09:04;102123.09;;;-2.82;78.10
58072;BME280;60383;46.626;18.866;2024-01-10T03:11:29;102123.16;;;-2.84;78.00
58072;BME280;60383;46.626;18.866;2024-01-10T03:14:04;102122.91;;;-2.71;77.69
58072;BME280;60383;46.626;18.866;2024-01-10T03:16:32;102118.34;;;-2.68;77.09
58072;BME280;60383;46.626;18.866;2024-01-10T03:18:57;102121.91;;;-2.66;77.29
58072;BME280;60383;46.626;18.866;2024-01-10T03:21:23;102129.75;;;-2.57;76.61
58072;BME280;60383;46.626;18.866;2024-01-10T03:23:55;102122.56;;;-2.54;77.13
58072;BME280;60383;46.626;18.866;2024-01-10T03:26:21;102126.88;;;-2.47;77.09
58072;BME280;60383;46.626;18.866;2024-01-10T03:28:47;102128.78;;;-2.52;76.99
58072;BME280;60383;46.626;18.866;2024-01-10T03:31:13;102128.88;;;-2.57;77.64
58072;BME280;60383;46.626;18.866;2024-01-10T03:33:38;102132.38;;;-2.53;77.57
58072;BME280;60383;46.626;18.866;2024-01-10T03:36:06;102125.06;;;-2.45;76.54
58072;BME280;60383;46.626;18.866;2024-01-10T03:38:31;102132.19;;;-2.44;76.93
58072;BME280;60383;46.626;18.866;2024-01-10T03:40:57;102127.75;;;-2.47;77.89
58072;BME280;60383;46.626;18.866;2024-01-10T03:43:22;102129.50;;;-2.44;77.60
58072;BME280;60383;46.626;18.866;2024-01-10T03:45:47;102121.91;;;-2.66;77.51
58072;BME280;60383;46.626;18.866;2024-01-10T03:48:13;102132.97;;;-2.83;77.24
58072;BME280;60383;46.626;18.866;2024-01-10T03:50:38;102124.25;;;-2.96;76.94
58072;BME280;60383;46.626;18.866;2024-01-10T03:53:04;102124.53;;;-3.11;76.80
58072;BME280;60383;46.626;18.866;2024-01-10T03:55:29;102126.06;;;-2.98;77.06
58072;BME280;60383;46.626;18.866;2024-01-10T03:57:56;102123.63;;;-3.10;77.23
58072;BME280;60383;46.626;18.866;2024-01-10T04:00:21;102127.13;;;-3.07;77.13
58072;BME280;60383;46.626;18.866;2024-01-10T04:02:47;102124.72;;;-3.22;77.33
58072;BME280;60383;46.626;18.866;2024-01-10T04:05:12;102133.59;;;-3.17;77.27
58072;BME280;60383;46.626;18.866;2024-01-10T04:07:42;102144.41;;;-3.25;76.44
58072;BME280;60383;46.626;18.866;2024-01-10T04:10:09;102143.47;;;-3.22;76.58
58072;BME280;60383;46.626;18.866;2024-01-10T04:12:38;102143.72;;;-3.36;76.67
58072;BME280;60383;46.626;18.866;2024-01-10T04:15:04;102139.41;;;-3.46;76.66
58072;BME280;60383;46.626;18.866;2024-01-10T04:17:30;102143.88;;;-3.45;77.08
58072;BME280;60383;46.626;18.866;2024-01-10T04:19:56;102142.03;;;-3.40;77.10
58072;BME280;60383;46.626;18.866;2024-01-10T04:22:23;102147.94;;;-3.19;76.87
58072;BME280;60383;46.626;18.866;2024-01-10T04:24:49;102155.09;;;-3.22;76.42
58072;BME280;60383;46.626;18.866;2024-01-10T04:27:15;102151.69;;;-2.81;73.68
58072;BME280;60383;46.626;18.866;2024-01-10T04:29:40;102154.06;;;-3.13;73.94
58072;BME280;60383;46.626;18.866;2024-01-10T04:32:06;102154.84;;;-3.08;74.43
58072;BME280;60383;46.626;18.866;2024-01-10T04:34:31;102163.47;;;-3.42;75.13
58072;BME280;60383;46.626;18.866;2024-01-10T04:36:57;102162.88;;;-3.59;76.25
58072;BME280;60383;46.626;18.866;2024-01-10T04:39:22;102166.50;;;-3.65;76.94
58072;BME280;60383;46.626;18.866;2024-01-10T04:41:48;102171.09;;;-3.72;77.63
58072;BME280;60383;46.626;18.866;2024-01-10T04:44:14;102162.97;;;-3.65;78.01
58072;BME280;60383;46.626;18.866;2024-01-10T04:46:39;102174.66;;;-3.73;78.22
58072;BME280;60383;46.626;18.866;2024-01-10T04:49:06;102167.28;;;-3.57;78.17
58072;BME280;60383;46.626;18.866;2024-01-10T04:51:32;102170.09;;;-3.66;77.88
58072;BME280;60383;46.626;18.866;2024-01-10T04:53:58;102168.66;;;-3.89;77.95
58072;BME280;60383;46.626;18.866;2024-01-10T04:56:23;102166.00;;;-3.92;78.84
58072;BME280;60383;46.626;18.866;2024-01-10T04:58:48;102163.38;;;-3.93;78.21
58072;BME280;60383;46.626;18.866;2024-01-10T05:01:14;102173.16;;;-3.91;78.59
58072;BME280;60383;46.626;18.866;2024-01-10T05:03:40;102169.66;;;-3.97;79.43
58072;BME280;60383;46.626;18.866;2024-01-10T05:06:05;102174.97;;;-3.94;79.65
58072;BME280;60383;46.626;18.866;2024-01-10T05:08:31;102167.03;;;-4.01;79.71
58072;BME280;60383;46.626;18.866;2024-01-10T05:10:56;102165.38;;;-4.11;79.68
58072;BME280;60383;46.626;18.866;2024-01-10T05:13:22;102168.00;;;-4.06;80.00
58072;BME280;60383;46.626;18.866;2024-01-10T05:15:47;102175.16;;;-4.07;80.24
58072;BME280;60383;46.626;18.866;2024-01-10T05:18:13;102172.34;;;-3.99;80.08
58072;BME280;60383;46.626;18.866;2024-01-10T05:20:38;102174.19;;;-4.03;79.42
58072;BME280;60383;46.626;18.866;2024-01-10T05:23:04;102175.03;;;-3.99;79.64
58072;BME280;60383;46.626;18.866;2024-01-10T05:25:30;102168.34;;;-3.69;78.47
58072;BME280;60383;46.626;18.866;2024-01-10T05:27:56;102169.06;;;-3.56;78.64
58072;BME280;60383;46.626;18.866;2024-01-10T05:30:21;102169.00;;;-3.53;78.17
58072;BME280;60383;46.626;18.866;2024-01-10T05:32:47;102171.53;;;-3.43;77.83
58072;BME280;60383;46.626;18.866;2024-01-10T05:35:12;102171.41;;;-3.35;77.99
58072;BME280;60383;46.626;18.866;2024-01-10T05:37:37;102175.13;;;-3.44;77.58
58072;BME280;60383;46.626;18.866;2024-01-10T05:40:03;102176.03;;;-3.45;78.00
58072;BME280;60383;46.626;18.866;2024-01-10T05:42:32;102170.72;;;-3.50;77.76
58072;BME280;60383;46.626;18.866;2024-01-10T05:44:59;102173.38;;;-3.47;77.96
58072;BME280;60383;46.626;18.866;2024-01-10T05:47:24;102169.88;;;-3.50;77.78
58072;BME280;60383;46.626;18.866;2024-01-10T05:49:51;102171.75;;;-3.56;78.52
58072;BME280;60383;46.626;18.866;2024-01-10T05:52:18;102172.56;;;-3.52;78.50
58072;BME280;60383;46.626;18.866;2024-01-10T05:54:44;102169.63;;;-3.35;79.33
58072;BME280;60383;46.626;18.866;2024-01-10T05:57:09;102174.84;;;-3.27;77.98
58072;BME280;60383;46.626;18.866;2024-01-10T05:59:35;102178.47;;;-3.30;77.81
58072;BME280;60383;46.626;18.866;2024-01-10T06:02:01;102172.41;;;-3.41;78.22
58072;BME280;60383;46.626;18.866;2024-01-10T06:04:27;102173.25;;;-3.38;79.21
58072;BME280;60383;46.626;18.866;2024-01-10T06:06:57;102178.56;;;-3.36;78.75
58072;BME280;60383;46.626;18.866;2024-01-10T06:09:22;102173.97;;;-3.29;77.07
58072;BME280;60383;46.626;18.866;2024-01-10T06:11:48;102179.22;;;-3.22;75.53
58072;BME280;60383;46.626;18.866;2024-01-10T06:14:14;102183.50;;;-3.11;74.03
58072;BME280;60383;46.626;18.866;2024-01-10T06:16:39;102178.97;;;-3.08;73.96
58072;BME280;60383;46.626;18.866;2024-01-10T06:19:05;102189.03;;;-3.21;74.22
58072;BME280;60383;46.626;18.866;2024-01-10T06:21:31;102180.28;;;-3.30;74.55
58072;BME280;60383;46.626;18.866;2024-01-10T06:23:57;102185.16;;;-3.59;75.36
58072;BME280;60383;46.626;18.866;2024-01-10T06:26:22;102181.56;;;-3.55;75.70
58072;BME280;60383;46.626;18.866;2024-01-10T06:28:48;102190.44;;;-3.53;75.89
58072;BME280;60383;46.626;18.866;2024-01-10T06:31:13;102184.97;;;-3.45;76.03
58072;BME280;60383;46.626;18.866;2024-01-10T06:33:39;102183.06;;;-3.38;76.14
58072;BME280;60383;46.626;18.866;2024-01-10T06:36:05;102195.72;;;-3.48;76.42
58072;BME280;60383;46.626;18.866;2024-01-10T06:38:30;102200.13;;;-3.45;76.25
58072;BME280;60383;46.626;18.866;2024-01-10T06:40:56;102190.47;;;-3.54;76.49
58072;BME280;60383;46.626;18.866;2024-01-10T06:43:21;102193.97;;;-3.50;77.13
58072;BME280;60383;46.626;18.866;2024-01-10T06:45:47;102201.25;;;-3.59;77.33
58072;BME280;60383;46.626;18.866;2024-01-10T06:48:13;102196.59;;;-3.46;77.09
58072;BME280;60383;46.626;18.866;2024-01-10T06:50:40;102196.31;;;-3.29;77.19
58072;BME280;60383;46.626;18.866;2024-01-10T06:53:05;102191.88;;;-2.78;75.62
58072;BME280;60383;46.626;18.866;2024-01-10T06:55:31;102184.81;;;-1.95;73.24
58072;BME280;60383;46.626;18.866;2024-01-10T06:57:56;102194.06;;;-1.67;71.48
58072;BME280;60383;46.626;18.866;2024-01-10T07:00:22;102186.00;;;-1.30;70.50
58072;BME280;60383;46.626;18.866;2024-01-10T07:02:49;102189.25;;;-1.17;68.54
58072;BME280;60383;46.626;18.866;2024-01-10T07:05:15;102190.69;;;-1.02;68.74
58072;BME280;60383;46.626;18.866;2024-01-10T07:07:41;102187.22;;;-0.72;67.75
58072;BME280;60383;46.626;18.866;2024-01-10T07:10:07;102186.88;;;0.03;64.62
58072;BME280;60383;46.626;18.866;2024-01-10T07:12:33;102174.81;;;0.73;61.25
58072;BME280;60383;46.626;18.866;2024-01-10T07:14:59;102187.16;;;1.58;59.20
58072;BME280;60383;46.626;18.866;2024-01-10T07:17:25;102184.47;;;2.29;58.29
58072;BME280;60383;46.626;18.866;2024-01-10T07:19:50;102183.41;;;3.20;54.42
58072;BME280;60383;46.626;18.866;2024-01-10T07:22:16;102181.53;;;3.23;53.69
58072;BME280;60383;46.626;18.866;2024-01-10T07:24:43;102176.31;;;4.18;51.11
58072;BME280;60383;46.626;18.866;2024-01-10T07:27:09;102185.56;;;4.33;50.44
58072;BME280;60383;46.626;18.866;2024-01-10T07:29:35;102180.75;;;4.94;48.71
58072;BME280;60383;46.626;18.866;2024-01-10T07:32:00;102179.47;;;5.19;47.43
58072;BME280;60383;46.626;18.866;2024-01-10T07:34:26;102181.88;;;4.90;47.63
58072;BME280;60383;46.626;18.866;2024-01-10T07:36:51;102187.44;;;4.69;48.89
58072;BME280;60383;46.626;18.866;2024-01-10T07:39:19;102182.13;;;5.89;46.35
58072;BME280;60383;46.626;18.866;2024-01-10T07:41:45;102183.88;;;6.71;44.04
58072;BME280;60383;46.626;18.866;2024-01-10T07:44:10;102187.88;;;7.57;42.35
58072;BME280;60383;46.626;18.866;2024-01-10T07:46:36;102185.81;;;7.46;41.27
58072;BME280;60383;46.626;18.866;2024-01-10T07:49:05;102192.66;;;6.13;45.03
58072;BME280;60383;46.626;18.866;2024-01-10T07:51:31;102191.56;;;7.56;42.14
58072;BME280;60383;46.626;18.866;2024-01-10T07:53:58;102195.91;;;8.04;41.85
58072;BME280;60383;46.626;18.866;2024-01-10T07:56:24;102195.22;;;8.29;40.22
58072;BME280;60383;46.626;18.866;2024-01-10T07:58:50;102190.47;;;9.02;39.36
58072;BME280;60383;46.626;18.866;2024-01-10T08:01:16;102190.91;;;9.08;39.38
58072;BME280;60383;46.626;18.866;2024-01-10T08:03:42;102194.97;;;8.61;40.12
58072;BME280;60383;46.626;18.866;2024-01-10T08:06:07;102196.91;;;9.67;38.34
58072;BME280;60383;46.626;18.866;2024-01-10T08:08:33;102186.81;;;10.32;36.84
58072;BME280;60383;46.626;18.866;2024-01-10T08:10:59;102183.03;;;9.70;36.97
58072;BME280;60383;46.626;18.866;2024-01-10T08:13:24;102181.47;;;10.67;36.17
58072;BME280;60383;46.626;18.866;2024-01-10T08:15:50;102187.59;;;11.19;35.04
58072;BME280;60383;46.626;18.866;2024-01-10T08:18:16;102182.41;;;11.03;34.76
58072;BME280;60383;46.626;18.866;2024-01-10T08:20:42;102189.59;;;11.64;33.38
58072;BME280;60383;46.626;18.866;2024-01-10T08:23:07;102193.16;;;11.42;33.11
58072;BME280;60383;46.626;18.866;2024-01-10T08:25:33;102186.53;;;10.85;33.50
58072;BME280;60383;46.626;18.866;2024-01-10T08:27:59;102198.69;;;10.69;34.00
58072;BME280;60383;46.626;18.866;2024-01-10T08:30:24;102186.13;;;11.27;33.42
58072;BME280;60383;46.626;18.866;2024-01-10T08:32:50;102187.06;;;11.50;32.44
58072;BME280;60383;46.626;18.866;2024-01-10T08:35:15;102200.63;;;10.43;34.37
58072;BME280;60383;46.626;18.866;2024-01-10T08:37:41;102193.66;;;10.63;34.25
58072;BME280;60383;46.626;18.866;2024-01-10T08:40:10;102198.34;;;9.98;35.12
58072;BME280;60383;46.626;18.866;2024-01-10T08:42:41;102192.63;;;10.27;35.41
58072;BME280;60383;46.626;18.866;2024-01-10T08:45:08;102198.25;;;9.87;35.86
58072;BME280;60383;46.626;18.866;2024-01-10T08:47:37;102201.16;;;9.45;36.81
58072;BME280;60383;46.626;18.866;2024-01-10T08:50:04;102201.66;;;9.24;37.10
58072;BME280;60383;46.626;18.866;2024-01-10T08:52:34;102196.69;;;9.04;38.03
58072;BME280;60383;46.626;18.866;2024-01-10T08:55:04;102200.13;;;9.20;36.98
58072;BME280;60383;46.626;18.866;2024-01-10T08:57:30;102198.28;;;8.93;37.82
58072;BME280;60383;46.626;18.866;2024-01-10T08:59:55;102203.84;;;8.65;38.53
58072;BME280;60383;46.626;18.866;2024-01-10T09:02:20;102208.75;;;8.16;39.56
58072;BME280;60383;46.626;18.866;2024-01-10T09:04:48;102207.00;;;8.29;39.56
58072;BME280;60383;46.626;18.866;2024-01-10T09:07:14;102210.97;;;8.24;39.60
58072;BME280;60383;46.626;18.866;2024-01-10T09:09:39;102206.88;;;8.31;39.94
58072;BME280;60383;46.626;18.866;2024-01-10T09:12:05;102209.81;;;7.84;39.98
58072;BME280;60383;46.626;18.866;2024-01-10T09:14:30;102208.63;;;7.60;41.06
58072;BME280;60383;46.626;18.866;2024-01-10T09:16:56;102207.00;;;7.72;40.95
58072;BME280;60383;46.626;18.866;2024-01-10T09:19:21;102198.50;;;7.76;40.31
58072;BME280;60383;46.626;18.866;2024-01-10T09:21:47;102206.25;;;7.39;40.68
58072;BME280;60383;46.626;18.866;2024-01-10T09:24:13;102203.44;;;7.55;40.16
58072;BME280;60383;46.626;18.866;2024-01-10T09:26:40;102207.44;;;7.64;40.67
58072;BME280;60383;46.626;18.866;2024-01-10T09:29:06;102208.56;;;7.76;41.35
58072;BME280;60383;46.626;18.866;2024-01-10T09:31:31;102200.78;;;7.84;40.60
58072;BME280;60383;46.626;18.866;2024-01-10T09:33:57;102200.81;;;7.54;41.20
58072;BME280;60383;46.626;18.866;2024-01-10T09:36:22;102197.50;;;7.63;41.50
58072;BME280;60383;46.626;18.866;2024-01-10T09:38:48;102199.81;;;7.99;40.93
58072;BME280;60383;46.626;18.866;2024-01-10T09:41:14;102199.13;;;7.96;40.16
58072;BME280;60383;46.626;18.866;2024-01-10T09:43:41;102198.91;;;8.13;39.41
58072;BME280;60383;46.626;18.866;2024-01-10T09:46:07;102190.63;;;8.15;39.23
58072;BME280;60383;46.626;18.866;2024-01-10T09:48:32;102184.88;;;7.62;39.70
58072;BME280;60383;46.626;18.866;2024-01-10T09:50:58;102180.72;;;7.85;40.01
58072;BME280;60383;46.626;18.866;2024-01-10T09:53:27;102180.47;;;7.74;40.53
58072;BME280;60383;46.626;18.866;2024-01-10T09:55:53;102182.66;;;7.97;39.92
58072;BME280;60383;46.626;18.866;2024-01-10T09:58:25;102178.06;;;7.98;39.78
58072;BME280;60383;46.626;18.866;2024-01-10T10:00:51;102171.63;;;8.13;39.82
58072;BME280;60383;46.626;18.866;2024-01-10T10:03:17;102183.69;;;8.24;39.62
58072;BME280;60383;46.626;18.866;2024-01-10T10:05:43;102174.44;;;7.54;40.18
58072;BME280;60383;46.626;18.866;2024-01-10T10:08:13;102171.75;;;7.97;40.60
58072;BME280;60383;46.626;18.866;2024-01-10T10:10:50;102164.28;;;8.28;39.84
58072;BME280;60383;46.626;18.866;2024-01-10T10:13:27;102157.28;;;8.24;39.99
58072;BME280;60383;46.626;18.866;2024-01-10T10:16:00;102161.97;;;7.50;41.05
58072;BME280;60383;46.626;18.866;2024-01-10T10:18:26;102159.75;;;8.00;41.71
58072;BME280;60383;46.626;18.866;2024-01-10T10:23:31;102156.03;;;8.01;40.60
58072;BME280;60383;46.626;18.866;2024-01-10T10:25:57;102163.34;;;7.86;40.69
58072;BME280;60383;46.626;18.866;2024-01-10T10:28:28;102166.44;;;7.51;42.36
58072;BME280;60383;46.626;18.866;2024-01-10T10:30:55;102160.59;;;6.82;42.99
58072;BME280;60383;46.626;18.866;2024-01-10T10:33:20;102158.34;;;6.42;44.33
58072;BME280;60383;46.626;18.866;2024-01-10T10:35:46;102155.72;;;7.03;43.37
58072;BME280;60383;46.626;18.866;2024-01-10T10:38:12;102157.13;;;7.25;42.95
58072;BME280;60383;46.626;18.866;2024-01-10T10:40:37;102154.34;;;6.80;44.04
58072;BME280;60383;46.626;18.866;2024-01-10T10:43:04;102154.47;;;6.78;44.09
58072;BME280;60383;46.626;18.866;2024-01-10T10:45:31;102151.50;;;6.19;43.93
58072;BME280;60383;46.626;18.866;2024-01-10T10:48:00;102163.13;;;6.85;43.89
58072;BME280;60383;46.626;18.866;2024-01-10T10:50:30;102150.38;;;7.01;43.43
58072;BME280;60383;46.626;18.866;2024-01-10T10:52:58;102156.13;;;6.81;43.98
58072;BME280;60383;46.626;18.866;2024-01-10T10:55:26;102155.31;;;6.79;44.72
58072;BME280;60383;46.626;18.866;2024-01-10T10:57:53;102149.63;;;7.14;42.58
58072;BME280;60383;46.626;18.866;2024-01-10T11:00:20;102147.47;;;6.88;44.22
58072;BME280;60383;46.626;18.866;2024-01-10T11:02:47;102144.31;;;4.98;47.67
58072;BME280;60383;46.626;18.866;2024-01-10T11:05:13;102143.19;;;5.88;47.04
58072;BME280;60383;46.626;18.866;2024-01-10T11:07:40;102133.16;;;6.22;46.65
58072;BME280;60383;46.626;18.866;2024-01-10T11:10:10;102135.78;;;5.90;46.67
58072;BME280;60383;46.626;18.866;2024-01-10T11:18:21;102129.09;;;5.64;47.21
58072;BME280;60383;46.626;18.866;2024-01-10T11:23:42;102124.31;;;5.01;49.10
58072;BME280;60383;46.626;18.866;2024-01-10T11:26:10;102127.03;;;4.64;50.65
58072;BME280;60383;46.626;18.866;2024-01-10T11:28:40;102118.38;;;5.27;48.95
58072;BME280;60383;46.626;18.866;2024-01-10T11:31:08;102116.47;;;5.63;47.75
58072;BME280;60383;46.626;18.866;2024-01-10T11:33:39;102118.72;;;5.55;47.93
58072;BME280;60383;46.626;18.866;2024-01-10T11:38:48;102105.13;;;5.55;47.48
58072;BME280;60383;46.626;18.866;2024-01-10T11:41:23;102108.88;;;4.84;49.58
58072;BME280;60383;46.626;18.866;2024-01-10T11:46:40;102105.50;;;4.78;47.76
58072;BME280;60383;46.626;18.866;2024-01-10T11:49:09;102102.16;;;4.73;49.04
58072;BME280;60383;46.626;18.866;2024-01-10T11:51:37;102098.91;;;4.67;49.28
58072;BME280;60383;46.626;18.866;2024-01-10T11:54:02;102098.09;;;4.28;50.15
58072;BME280;60383;46.626;18.866;2024-01-10T11:56:43;102104.47;;;4.08;51.30
58072;BME280;60383;46.626;18.866;2024-01-10T11:59:11;102100.53;;;3.96;52.06
58072;BME280;60383;46.626;18.866;2024-01-10T12:01:37;102095.69;;;4.03;50.74
58072;BME280;60383;46.626;18.866;2024-01-10T12:04:04;102089.47;;;4.00;51.48
58072;BME280;60383;46.626;18.866;2024-01-10T12:06:30;102087.25;;;4.09;50.48
58072;BME280;60383;46.626;18.866;2024-01-10T12:08:56;102085.72;;;4.03;50.61
58072;BME280;60383;46.626;18.866;2024-01-10T12:11:23;102081.88;;;3.31;52.95
58072;BME280;60383;46.626;18.866;2024-01-10T12:13:48;102077.81;;;3.60;52.04
58072;BME280;60383;46.626;18.866;2024-01-10T12:16:14;102079.25;;;3.48;52.07
58072;BME280;60383;46.626;18.866;2024-01-10T12:18:43;102082.91;;;3.47;52.74
58072;BME280;60383;46.626;18.866;2024-01-10T12:21:09;102087.50;;;3.06;54.15
58072;BME280;60383;46.626;18.866;2024-01-10T12:23:36;102080.97;;;3.30;53.96
58072;BME280;60383;46.626;18.866;2024-01-10T12:26:02;102076.53;;;2.67;55.07
58072;BME280;60383;46.626;18.866;2024-01-10T12:28:30;102072.09;;;2.22;56.92
58072;BME280;60383;46.626;18.866;2024-01-10T12:30:56;102078.69;;;2.59;56.49
58072;BME280;60383;46.626;18.866;2024-01-10T12:33:22;102081.41;;;2.15;56.02
58072;BME280;60383;46.626;18.866;2024-01-10T12:36:10;102080.16;;;2.23;56.41
58072;BME280;60383;46.626;18.866;2024-01-10T12:38:38;102077.59;;;1.98;57.62
58072;BME280;60383;46.626;18.866;2024-01-10T12:41:04;102070.53;;;2.81;56.23
58072;BME280;60383;46.626;18.866;2024-01-10T12:43:30;102070.63;;;2.99;55.99
58072;BME280;60383;46.626;18.866;2024-01-10T12:46:11;102062.22;;;2.86;54.84
58072;BME280;60383;46.626;18.866;2024-01-10T12:48:41;102067.69;;;2.84;56.27
58072;BME280;60383;46.626;18.866;2024-01-10T12:51:11;102059.06;;;2.54;56.70
58072;BME280;60383;46.626;18.866;2024-01-10T12:56:07;102062.13;;;2.87;56.04
58072;BME280;60383;46.626;18.866;2024-01-10T12:58:34;102064.91;;;2.86;56.11